»·PEaware :: WAT169 KPHX-KSNA

WAT169 :: KPHX-KSNA

FLIGHT INFORMATION

Flight Status: Arrived
Operator:
Walker Air Transport
More flights by this operator :: More flights under this callsign
Pilot: Marty P. (27464)
Aircraft: BOEING 737-800
(B738)
More flights by this aircraft type
Origin: KPHX Phoenix Sky Harbor Intl
United States
Destination: KSNA John Wayne-Orange Co
United States
More flights between these airports :: More routes between these airports
Route: +KEENS2 HRRBR EMLLD DSNEE4
File this flight plan on PilotEdge
Remarks:
Altitude:
(Current/Filed)
32,000ft
Speed:
(Current/Filed)
480kts
Departed: 16-Oct-20 07:02 PM
Arrived: 16-Oct-20 07:54 PM
Distance/Time
Traveled:
293nm/0:51
Distance/Time
To Go:
Arrived

Flight Plot

Page will automatically refresh every two minutes.

Flight plan parsing failed; only flown route is shown


Map Options




Map Legend


Flown Route
Filed Route
Departure Airport
Arrival Airport
Navaid (VOR, NDB)
Fix

Horizontal Profiles

Position Reports

Time Latitude Longitude Heading Altitude Ground
Speed
16-Oct-20 18:46 33.434029 -111.997294 80 1129ft 0kts
16-Oct-20 18:47 33.434029 -111.997294 80 1129ft 0kts
16-Oct-20 18:48 33.434029 -111.997294 80 1129ft 0kts
16-Oct-20 18:49 33.434029 -111.997294 80 1129ft 0kts
16-Oct-20 18:50 33.434029 -111.997294 80 1129ft 0kts
16-Oct-20 18:51 33.434019 -111.997367 80 1129ft 2kts
16-Oct-20 18:52 33.434260 -111.997821 181 1129ft 0kts
16-Oct-20 18:53 33.433343 -111.997821 180 1129ft 0kts
16-Oct-20 18:54 33.433343 -111.997821 180 1129ft 0kts
16-Oct-20 18:55 33.433343 -111.997821 180 1129ft 0kts
16-Oct-20 18:56 33.432991 -111.997876 190 1129ft 5kts
16-Oct-20 18:57 33.432147 -112.001417 270 1127ft 24kts
16-Oct-20 18:58 33.432158 -112.008982 270 1129ft 20kts
16-Oct-20 18:58 33.432159 -112.015673 269 1124ft 27kts
16-Oct-20 18:59 33.432168 -112.023880 269 1119ft 20kts
16-Oct-20 19:00 33.431429 -112.026951 164 1115ft 13kts
16-Oct-20 19:01 33.431263 -111.994170 88 1615ft 179kts
16-Oct-20 19:02 33.433774 -111.922757 89 3720ft 250kts
16-Oct-20 19:03 33.408895 -111.849782 154 6163ft 249kts
16-Oct-20 19:04 33.353271 -111.880440 256 9689ft 258kts
16-Oct-20 19:05 33.359747 -111.970036 276 12046ft 313kts
16-Oct-20 19:06 33.374974 -112.089161 280 13292ft 392kts
16-Oct-20 19:07 33.394485 -112.219237 279 16246ft 404kts
16-Oct-20 19:08 33.414311 -112.353323 279 18800ft 416kts
16-Oct-20 19:09 33.434656 -112.491546 279 21045ft 428kts
16-Oct-20 19:10 33.449182 -112.634527 272 23033ft 438kts
16-Oct-20 19:11 33.455614 -112.781840 277 24859ft 448kts
16-Oct-20 19:12 33.478798 -112.930284 281 26456ft 458kts
16-Oct-20 19:13 33.505727 -113.080316 281 27971ft 465kts
16-Oct-20 19:14 33.533245 -113.229874 281 29960ft 456kts
16-Oct-20 19:15 33.560233 -113.376360 281 31845ft 447kts
16-Oct-20 19:16 33.587751 -113.526475 281 31917ft 475kts
16-Oct-20 19:17 33.616801 -113.684421 281 31917ft 491kts
16-Oct-20 19:18 33.650429 -113.844777 288 31919ft 499kts
16-Oct-20 19:19 33.703444 -113.999066 292 31916ft 503kts
16-Oct-20 19:20 33.751757 -114.156373 285 31917ft 502kts
16-Oct-20 19:21 33.777817 -114.321124 277 31917ft 502kts
16-Oct-20 19:22 33.797789 -114.486854 277 31917ft 502kts
16-Oct-20 19:23 33.817062 -114.652197 276 31917ft 502kts
16-Oct-20 19:24 33.836220 -114.819744 276 31917ft 503kts
16-Oct-20 19:25 33.854845 -114.987106 276 31917ft 504kts
16-Oct-20 19:26 33.873089 -115.154364 276 31917ft 505kts
16-Oct-20 19:27 33.891409 -115.321139 276 31909ft 490kts
16-Oct-20 19:28 33.908107 -115.474089 276 31915ft 456kts
16-Oct-20 19:29 33.924655 -115.627617 276 30090ft 462kts
16-Oct-20 19:30 33.936575 -115.783952 273 28761ft 473kts
16-Oct-20 19:31 33.947299 -115.942105 274 26272ft 482kts
16-Oct-20 19:32 33.958239 -116.100187 274 24119ft 463kts
16-Oct-20 19:33 33.956899 -116.246301 263 23966ft 399kts
16-Oct-20 19:34 33.942448 -116.379273 262 23937ft 400kts
16-Oct-20 19:35 33.926542 -116.511667 261 23936ft 401kts
16-Oct-20 19:36 33.909580 -116.645507 261 22220ft 406kts
16-Oct-20 19:37 33.892970 -116.774838 262 18684ft 383kts
16-Oct-20 19:38 33.879507 -116.899457 263 14696ft 372kts
16-Oct-20 19:39 33.866000 -117.022544 263 11786ft 360kts
16-Oct-20 19:40 33.853660 -117.133293 263 10256ft 306kts
16-Oct-20 19:41 33.843152 -117.227321 263 8803ft 261kts
16-Oct-20 19:42 33.833821 -117.310244 264 8014ft 238kts
16-Oct-20 19:43 33.824779 -117.390244 263 8008ft 241kts
16-Oct-20 19:44 33.819956 -117.471183 271 7369ft 246kts
16-Oct-20 19:45 33.820440 -117.547975 271 6051ft 197kts
16-Oct-20 19:46 33.820765 -117.613433 273 6069ft 199kts
16-Oct-20 19:47 33.844641 -117.672593 301 4568ft 192kts
16-Oct-20 19:48 33.860314 -117.727607 240 3138ft 184kts
16-Oct-20 19:49 33.825399 -117.773852 211 3023ft 190kts
16-Oct-20 19:50 33.778505 -117.803573 209 2230ft 187kts
16-Oct-20 19:51 33.734921 -117.831258 207 1266ft 155kts
16-Oct-20 19:52 33.697572 -117.854958 207 451ft 149kts
16-Oct-20 19:53 33.670732 -117.871984 208 66ft 19kts
16-Oct-20 19:54 33.669178 -117.871606 123 66ft 0kts
16-Oct-20 19:55 33.669892 -117.870124 40 66ft 12kts
16-Oct-20 19:56 33.673101 -117.867300 44 66ft 15kts
16-Oct-20 19:57 33.675619 -117.865471 80 66ft 2kts

Navigation Log

Ident Type
Flight plan parsing failed, navigation log unavailable